Flight Track Log - Related Links

Times and Time Zones

All times are in EDT time to prevent confusion due to time zone crossing. See the SWA2852 flight status page for this flight to view local times or setup timezone preferences in your user account.

Time Position Orientation Groundspeed Altitude Reporting Facility
EDT Latitude Longitude Course Direction KTS MPH feet Rate Location/Type
Wed 07:34:12 AM 36.1000 -86.6833 238° Southwest 159 183 1,600  Level Nashville TRACON
Wed 07:34:42 AM 36.0833 -86.7167 238° Southwest 155 178 2,900 2,333 Climbing Nashville TRACON
Wed 07:35:42 AM 36.1000 -86.7833 287° West 239 275 5,100 2,982 Climbing Nashville TRACON
Wed 07:37:29 AM 36.1508 -86.9331 293° West 285 328 11,200 3,449 Climbing Memphis Center
Wed 07:38:29 AM 36.1978 -87.0494 297° West 317 365 14,700 3,550 Climbing Memphis Center
Wed 07:39:29 AM 36.2425 -87.1583 297° West 349 402 18,300 3,400 Climbing Memphis Center
Wed 07:40:29 AM 36.2786 -87.2778 291° West 361 415 21,500 3,050 Climbing Memphis Center
Wed 07:41:29 AM 36.3047 -87.4031 285° West 373 429 24,400 2,850 Climbing Memphis Center
Wed 07:42:29 AM 36.3328 -87.5386 284° West 385 443 27,200 2,600 Climbing Memphis Center
Wed 07:43:29 AM 36.3589 -87.6744 283° West 400 460 29,600 2,050 Climbing Memphis Center
Wed 07:44:29 AM 36.3844 -87.7947 285° West 405 466 31,300 2,150 Climbing Memphis Center
Wed 07:45:29 AM 36.4122 -87.9331 284° West 405 466 33,900 2,400 Climbing Memphis Center
Wed 07:46:29 AM 36.4375 -88.0639 284° West 410 472 36,100 1,600 Climbing Memphis Center
Wed 07:47:29 AM 36.4669 -88.1919 286° West 398 458 37,100 850 Climbing Memphis Center
Wed 07:48:29 AM 36.4900 -88.3203 283° West 388 447 37,800 700 Climbing Memphis Center
Wed 07:49:29 AM 36.5172 -88.4592 284° West 399 459 38,500 1,050 Climbing Memphis Center
Wed 07:50:29 AM 36.5442 -88.5981 284° West 411 473 39,900 750 Climbing Memphis Center
Wed 07:51:29 AM 36.5733 -88.7394 284° West 417 480 40,000 50 Climbing Memphis Center
Wed 07:52:29 AM 36.5981 -88.8786 283° West 417 480 40,000  Level Memphis Center
Wed 07:53:29 AM 36.6267 -89.0150 285° West 412 474 40,000  Level Memphis Center
Wed 07:54:29 AM 36.6553 -89.1672 283° West 412 474 40,000  Level Memphis Center
Wed 07:55:29 AM 36.6836 -89.3064 284° West 412 474 40,000  Level Memphis Center
Wed 07:56:30 AM 36.7078 -89.4511 282° West 418 481 40,000 -250 Level Memphis Center
Wed 07:57:29 AM 36.7317 -89.5933 282° West 418 481 39,500 -756 Descending Memphis Center
Wed 07:58:29 AM 36.7531 -89.7303 281° West 418 481 38,500 -750 Descending Memphis Center
Wed 07:59:29 AM 36.7789 -89.8594 284° West 406 467 38,000 -250 Descending Memphis Center
Wed 08:00:29 AM 36.8022 -89.9917 282° West 394 453 38,000  Level Memphis Center
Wed 08:01:29 AM 36.8253 -90.1236 282° West 394 453 38,000  Level Memphis Center
Wed 08:02:29 AM 36.8486 -90.2558 282° West 394 453 38,000  Level Memphis Center
Wed 08:03:29 AM 36.8736 -90.3933 283° West 394 453 38,000  Level Memphis Center
Wed 08:05:37 AM 36.9197 -90.6608 282° West 403 464 38,000  Level Kansas City Center
Wed 08:06:37 AM 36.9433 -90.7967 282° West 402 463 38,000  Level Kansas City Center
Wed 08:07:41 AM 36.9678 -90.9311 283° West 400 460 38,000  Level Kansas City Center
Wed 08:08:42 AM 36.9911 -91.0661 282° West 398 458 38,000  Level Kansas City Center
Wed 08:09:40 AM 37.0139 -91.2117 281° West 397 457 38,000  Level Kansas City Center
Wed 08:10:42 AM 37.0372 -91.3458 282° West 395 455 38,000  Level Kansas City Center
Wed 08:11:44 AM 37.0606 -91.4797 282° West 393 452 38,000  Level Kansas City Center
Wed 08:12:45 AM 37.0822 -91.6131 282° West 390 449 38,000  Level Kansas City Center
Wed 08:13:47 AM 37.1056 -91.7447 283° West 388 447 38,000  Level Kansas City Center
Wed 08:14:48 AM 37.1264 -91.8786 281° West 387 445 38,000  Level Kansas City Center
Wed 08:15:49 AM 37.1478 -92.0106 282° West 386 444 38,000  Level Kansas City Center
Wed 08:16:49 AM 37.1697 -92.1439 282° West 388 447 38,000  Level Kansas City Center
Wed 08:17:51 AM 37.1967 -92.3075 282° West 393 452 38,000  Level Kansas City Center
Wed 08:18:53 AM 37.2181 -92.4453 281° West 397 457 38,000  Level Kansas City Center
Wed 08:19:54 AM 37.2394 -92.5825 281° West 398 458 38,000  Level Kansas City Center
Wed 08:20:54 AM 37.2614 -92.7206 281° West 400 460 38,000  Level Kansas City Center
Wed 08:21:54 AM 37.2833 -92.8606 281° West 404 465 38,000  Level Kansas City Center
Wed 08:22:58 AM 37.3053 -93.0022 281° West 406 467 38,000  Level Kansas City Center
Wed 08:23:56 AM 37.3264 -93.1419 281° West 407 468 38,000  Level Kansas City Center
Wed 08:24:59 AM 37.3489 -93.2844 281° West 410 472 38,000  Level Kansas City Center
Wed 08:26:01 AM 37.4347 -93.3806 318° Northwest 422 486 38,000 -390 Level Kansas City Center
Wed 08:27:02 AM 37.5447 -93.4403 337° Northwest 424 488 37,200 -885 Descending Kansas City Center
Wed 08:28:03 AM 37.6528 -93.5003 336° Northwest 423 487 36,200 -942 Descending Kansas City Center
Wed 08:29:03 AM 37.7636 -93.5617 336° Northwest 427 491 35,300 -942 Descending Kansas City Center
Wed 08:30:04 AM 37.8758 -93.6250 336° Northwest 436 502 34,300 -1,597 Descending Kansas City Center
Wed 08:31:07 AM 37.9872 -93.6867 336° Northwest 435 501 32,000 -2,903 Descending Kansas City Center
Wed 08:32:08 AM 38.1008 -93.7522 336° Northwest 442 509 28,300 -4,017 Descending Kansas City Center
Wed 08:33:08 AM 38.2189 -93.8206 336° Northwest 456 525 23,900 -3,620 Descending Kansas City Center
Wed 08:34:09 AM 38.3353 -93.8811 338° Northwest 453 521 21,000 -2,732 Descending Kansas City Center
Wed 08:35:11 AM 38.4425 -93.9436 335° Northwest 432 497 18,300 -2,829 Descending Kansas City Center
Wed 08:36:12 AM 38.5583 -94.0106 336° Northwest 411 473 15,200 -2,732 Descending Kansas City Center
Wed 08:37:14 AM 38.6533 -94.0644 336° Northwest 392 451 12,700 -1,561 Descending Kansas City Center
Wed 08:38:15 AM 38.7472 -94.1486 325° Northwest 368 423 12,000 -347 Descending Kansas City Center
Wed 08:39:15 AM 38.8192 -94.2289 319° Northwest 359 413 12,000 -149 Level Kansas City Center
Wed 08:40:16 AM 38.8808 -94.2967 319° Northwest 309 356 11,700 -984 Descending Kansas City Center
Wed 08:41:17 AM 38.9506 -94.3764 318° Northwest 301 346 10,000 -1,686 Descending Kansas City Center
Wed 08:42:17 AM 39.0006 -94.4492 311° West 287 330 8,300 -1,488 Descending Kansas City Center
Wed 08:43:18 AM 39.0611 -94.5336 313° West 287 330 7,000 -624 Descending Kansas City Center
Wed 08:44:22 AM 39.1119 -94.6075 312° West 288 331 7,000  Level Kansas City Center
Wed 08:45:22 AM 39.1608 -94.6783 312° West 278 320 7,000  Level Kansas City Center
Wed 08:46:23 AM 39.1944 -94.7675 296° West 241 277 7,000 -595 Level Kansas City Center
Wed 08:47:23 AM 39.2072 -94.8428 282° West 226 260 5,800 -1,403 Descending Kansas City Center
Wed 08:48:27 AM 39.2239 -94.9286 284° West 222 255 4,100 -871 Descending Kansas City Center
Wed 08:49:27 AM 39.2833 -94.9328 357° North 249 287 4,000 -397 Descending Kansas City Center
Wed 08:50:28 AM 39.3025 -94.8697 69° East 193 222 3,300 -836 Descending Kansas City Center
Wed 08:51:29 AM 39.2972 -94.8056 96° East 160 184 2,300 -787 Descending Kansas City Center
Wed 08:52:30 AM 39.2936 -94.7664 97° East 115 132 1,700 -590 Descending Kansas City Center
Wed 08:53:31 AM 39.2900 -94.7267 97° East 116 133 1,100 -590 Descending Kansas City Center

Login

Don't have an account? Register now (free) for customized features, flight alerts, and more!